createdAt,value
2022-11-29T00:01:30.244Z,17.21
2022-11-29T00:04:31.700Z,17.17
2022-11-29T00:07:34.438Z,17.18
2022-11-29T00:10:37.676Z,17.15
2022-11-29T00:13:39.853Z,17.15
2022-11-29T00:16:42.582Z,17.13
2022-11-29T00:19:45.117Z,17.12
2022-11-29T00:22:46.678Z,17.11
2022-11-29T00:25:48.257Z,17.10
2022-11-29T00:28:49.857Z,17.08
2022-11-29T00:31:51.300Z,17.08
2022-11-29T00:34:52.843Z,17.06
2022-11-29T00:37:54.360Z,17.06
2022-11-29T00:40:55.823Z,17.05
2022-11-29T00:43:57.383Z,17.04
2022-11-29T00:46:58.886Z,17.03
2022-11-29T00:50:00.379Z,17.01
2022-11-29T00:53:01.908Z,17.00
2022-11-29T00:56:04.897Z,16.99
2022-11-29T00:59:06.389Z,16.97
2022-11-29T01:02:08.034Z,16.95
2022-11-29T01:05:09.534Z,16.94
2022-11-29T01:08:12.006Z,16.94
2022-11-29T01:11:20.712Z,16.93
2022-11-29T01:14:22.400Z,16.91
2022-11-29T01:17:23.892Z,16.89
2022-11-29T01:20:25.836Z,16.89
2022-11-29T01:23:28.585Z,16.89
2022-11-29T01:26:30.959Z,16.87
2022-11-29T01:29:32.498Z,16.87
2022-11-29T01:32:33.994Z,16.85
2022-11-29T01:35:35.475Z,16.85
2022-11-29T01:38:37.064Z,16.84
2022-11-29T01:41:38.663Z,16.84
2022-11-29T01:44:46.639Z,16.83
2022-11-29T01:47:51.725Z,16.82
2022-11-29T01:50:55.172Z,16.82
2022-11-29T01:53:57.364Z,16.80
2022-11-29T01:56:59.563Z,16.79
2022-11-29T02:00:08.663Z,16.80
2022-11-29T02:03:16.501Z,16.79
2022-11-29T02:06:18.319Z,16.78
2022-11-29T02:09:22.340Z,16.77
2022-11-29T02:12:29.799Z,16.76
2022-11-29T02:15:42.612Z,16.76
2022-11-29T02:19:22.606Z,16.74
2022-11-29T02:22:38.893Z,16.71
2022-11-29T02:25:50.916Z,16.71
2022-11-29T02:29:31.692Z,16.70
2022-11-29T02:32:51.750Z,16.68
2022-11-29T02:36:33.973Z,16.69
2022-11-29T02:40:23.153Z,16.67
2022-11-29T02:43:53.087Z,16.64
2022-11-29T02:47:06.865Z,16.66
2022-11-29T02:50:28.340Z,16.64
2022-11-29T02:53:38.424Z,16.62
2022-11-29T02:56:42.788Z,16.60
2022-11-29T03:00:05.770Z,16.62
2022-11-29T03:03:18.587Z,16.61
2022-11-29T03:06:47.955Z,16.60
2022-11-29T03:10:01.415Z,16.58
2022-11-29T03:13:07.596Z,16.57
2022-11-29T03:16:14.545Z,16.55
2022-11-29T03:19:40.618Z,16.58
2022-11-29T03:23:20.220Z,16.56
2022-11-29T03:26:29.861Z,16.56
2022-11-29T03:29:48.471Z,16.56
2022-11-29T03:33:30.863Z,16.53
2022-11-29T03:36:59.907Z,16.53
2022-11-29T03:40:08.326Z,16.52
2022-11-29T03:43:18.011Z,16.51
2022-11-29T03:46:29.393Z,16.52
2022-11-29T03:49:39.930Z,16.51
2022-11-29T03:52:54.655Z,16.50
2022-11-29T03:56:01.484Z,16.50
2022-11-29T03:59:25.272Z,16.49
2022-11-29T04:03:05.570Z,16.50
2022-11-29T04:06:23.264Z,16.49
2022-11-29T04:09:46.693Z,16.51
2022-11-29T04:13:17.784Z,16.52
2022-11-29T04:16:39.710Z,16.52
2022-11-29T04:19:46.990Z,16.53
2022-11-29T04:22:51.505Z,16.53
2022-11-29T04:26:23.967Z,16.55
2022-11-29T04:29:46.741Z,16.57
2022-11-29T04:33:30.936Z,16.60
2022-11-29T04:36:51.343Z,16.60
2022-11-29T04:40:22.730Z,16.62
2022-11-29T04:43:36.248Z,16.62
2022-11-29T04:46:43.869Z,16.64
2022-11-29T04:49:48.261Z,16.64
2022-11-29T04:53:05.119Z,16.66
2022-11-29T04:56:28.071Z,16.69
2022-11-29T04:59:38.649Z,16.70
2022-11-29T05:02:56.741Z,16.71
2022-11-29T05:06:16.594Z,16.73
2022-11-29T05:10:09.178Z,16.74
2022-11-29T05:13:29.063Z,16.74
2022-11-29T05:16:48.122Z,16.75
2022-11-29T05:20:02.669Z,16.73
2022-11-29T05:23:22.802Z,16.75
2022-11-29T05:26:33.649Z,16.76
2022-11-29T05:29:59.242Z,16.74
2022-11-29T05:33:15.428Z,16.73
2022-11-29T05:36:35.651Z,16.72
2022-11-29T05:39:57.552Z,16.72
2022-11-29T05:43:31.089Z,16.71
2022-11-29T05:46:59.042Z,16.69
2022-11-29T05:50:10.528Z,16.68
2022-11-29T05:53:31.191Z,16.67
2022-11-29T05:56:55.356Z,16.65
2022-11-29T05:59:59.111Z,16.63
2022-11-29T06:03:21.407Z,16.65
2022-11-29T06:06:28.305Z,16.65
2022-11-29T06:09:39.757Z,16.65
2022-11-29T06:12:48.060Z,16.65
2022-11-29T06:16:31.140Z,16.68
2022-11-29T06:19:32.694Z,16.69
2022-11-29T06:23:02.050Z,16.73
2022-11-29T06:26:11.315Z,16.75
2022-11-29T06:29:43.247Z,16.76
2022-11-29T06:33:08.434Z,16.78
2022-11-29T06:36:16.144Z,16.77
2022-11-29T06:39:17.731Z,16.77
2022-11-29T06:42:19.270Z,16.78
2022-11-29T06:45:21.918Z,16.78
2022-11-29T06:48:27.076Z,16.79
2022-11-29T06:51:36.987Z,16.80
2022-11-29T06:55:01.276Z,16.80
2022-11-29T06:58:40.274Z,16.80
2022-11-29T07:01:48.051Z,16.78
2022-11-29T07:05:29.674Z,16.80
2022-11-29T07:08:31.416Z,16.76
2022-11-29T07:11:33.173Z,16.77
2022-11-29T07:14:35.631Z,16.77
2022-11-29T07:17:44.554Z,16.77
2022-11-29T07:21:11.872Z,16.77
2022-11-29T07:24:13.222Z,16.75
2022-11-29T07:27:30.312Z,16.75
2022-11-29T07:30:36.818Z,16.71
2022-11-29T07:33:44.137Z,16.70
2022-11-29T07:36:54.153Z,16.69
2022-11-29T07:40:10.914Z,16.69
2022-11-29T07:43:53.467Z,16.69
2022-11-29T07:46:54.983Z,16.67
2022-11-29T07:49:56.479Z,16.66
2022-11-29T07:52:59.172Z,16.65
2022-11-29T07:56:00.649Z,16.64
2022-11-29T07:59:02.616Z,16.63
2022-11-29T08:02:11.288Z,16.63
2022-11-29T08:05:13.459Z,16.62
2022-11-29T08:08:15.332Z,16.61
2022-11-29T08:11:16.794Z,16.60
2022-11-29T08:14:18.344Z,16.60
2022-11-29T08:17:19.859Z,16.60
2022-11-29T08:20:21.458Z,16.58
2022-11-29T08:23:22.940Z,16.59
2022-11-29T08:26:28.284Z,16.58
2022-11-29T08:29:32.834Z,16.60
2022-11-29T08:32:34.862Z,16.60
2022-11-29T08:35:36.403Z,16.62
2022-11-29T08:38:38.044Z,16.63
2022-11-29T08:41:39.547Z,16.64
2022-11-29T08:44:41.099Z,16.66
2022-11-29T08:47:42.933Z,16.67
2022-11-29T08:50:44.888Z,16.70
2022-11-29T08:53:51.487Z,16.73
2022-11-29T08:57:37.294Z,16.77
2022-11-29T09:00:15.378Z,16.82
2022-11-29T09:03:35.372Z,16.85
2022-11-29T09:06:39.380Z,16.89
2022-11-29T09:09:40.940Z,16.90
2022-11-29T09:12:44.151Z,16.94
2022-11-29T09:15:45.707Z,16.98
2022-11-29T09:18:51.933Z,17.01
2022-11-29T09:21:53.741Z,17.03
2022-11-29T09:24:55.250Z,17.03
2022-11-29T09:27:58.828Z,17.06
2022-11-29T09:31:06.292Z,17.07
2022-11-29T09:34:07.959Z,17.06
2022-11-29T09:37:09.460Z,17.06
2022-11-29T09:40:18.219Z,17.09
2022-11-29T09:43:40.648Z,17.09
2022-11-29T09:47:04.034Z,17.10
2022-11-29T09:50:11.765Z,17.07
2022-11-29T09:53:47.583Z,17.08
2022-11-29T09:56:53.063Z,17.08
2022-11-29T09:59:59.203Z,17.09
2022-11-29T10:03:08.356Z,17.09
2022-11-29T10:06:27.556Z,17.10
2022-11-29T10:09:38.260Z,17.10
2022-11-29T10:12:44.322Z,17.09
2022-11-29T10:15:48.650Z,17.09
2022-11-29T10:18:54.028Z,16.97
2022-11-29T10:22:33.689Z,16.70
2022-11-29T10:25:46.463Z,16.47
2022-11-29T10:28:49.255Z,16.41
2022-11-29T10:31:54.865Z,16.46
2022-11-29T10:34:58.560Z,16.49
2022-11-29T10:41:23.696Z,16.59
2022-11-29T10:44:25.463Z,16.62
2022-11-29T10:47:27.035Z,16.63
2022-11-29T10:50:31.890Z,16.64
2022-11-29T10:53:37.235Z,16.67
2022-11-29T10:56:40.285Z,16.65
2022-11-29T10:59:42.048Z,16.67
2022-11-29T11:02:43.592Z,16.67
2022-11-29T11:06:01.695Z,16.68
2022-11-29T11:09:35.506Z,16.68
2022-11-29T11:12:36.995Z,16.67
2022-11-29T11:15:38.491Z,16.67
2022-11-29T11:18:40.026Z,16.66
2022-11-29T11:21:41.604Z,16.65
2022-11-29T11:24:44.393Z,16.66
2022-11-29T11:27:47.142Z,16.67
2022-11-29T11:31:01.663Z,16.69
2022-11-29T11:34:36.738Z,16.70
2022-11-29T11:37:38.303Z,16.68
2022-11-29T11:40:39.833Z,16.71
2022-11-29T11:43:41.578Z,16.72
2022-11-29T11:46:49.193Z,16.74
2022-11-29T11:50:04.405Z,16.75
2022-11-29T11:53:18.374Z,16.77
2022-11-29T11:56:20.422Z,16.78
2022-11-29T11:59:24.845Z,16.79
2022-11-29T12:02:40.966Z,16.78
2022-11-29T12:05:46.235Z,16.77
2022-11-29T12:08:49.290Z,16.77
2022-11-29T12:12:01.354Z,16.77
2022-11-29T12:15:20.461Z,16.77
2022-11-29T12:18:34.008Z,16.76
2022-11-29T12:21:41.914Z,16.74
2022-11-29T12:24:52.971Z,16.74
2022-11-29T12:27:54.505Z,16.71
2022-11-29T12:31:23.928Z,16.71
2022-11-29T12:34:53.106Z,16.69
2022-11-29T12:38:09.206Z,16.70
2022-11-29T12:41:54.168Z,16.68
2022-11-29T12:45:23.495Z,16.68
2022-11-29T12:48:49.690Z,16.68
2022-11-29T12:52:21.740Z,16.67
2022-11-29T12:55:46.762Z,16.66
2022-11-29T12:59:06.788Z,16.66
2022-11-29T13:02:24.396Z,16.67
2022-11-29T13:06:07.795Z,16.67
2022-11-29T13:09:21.349Z,16.67
2022-11-29T13:12:36.852Z,16.65
2022-11-29T13:15:44.580Z,16.67
2022-11-29T13:18:53.386Z,16.69
2022-11-29T13:22:25.394Z,16.70
2022-11-29T13:25:38.353Z,16.68
2022-11-29T13:28:41.976Z,16.70
2022-11-29T13:31:45.546Z,16.70
2022-11-29T13:34:50.666Z,16.71
2022-11-29T13:38:03.253Z,16.74
2022-11-29T13:41:27.342Z,16.73
2022-11-29T13:44:46.280Z,16.73
2022-11-29T13:47:58.146Z,16.74
2022-11-29T13:51:28.212Z,16.76
2022-11-29T13:54:32.672Z,16.76
2022-11-29T13:58:15.505Z,16.76
2022-11-29T14:01:16.080Z,16.73
2022-11-29T14:04:37.502Z,16.76
2022-11-29T14:08:18.152Z,16.77
2022-11-29T14:11:56.159Z,16.76
2022-11-29T14:15:02.639Z,16.76
2022-11-29T14:18:08.099Z,16.76
2022-11-29T14:21:10.243Z,16.77
2022-11-29T14:24:36.805Z,16.79
2022-11-29T14:27:56.109Z,16.79
2022-11-29T14:31:01.235Z,16.78
2022-11-29T14:34:08.836Z,16.80
2022-11-29T14:37:22.409Z,16.83
2022-11-29T14:40:50.479Z,16.86
2022-11-29T14:44:04.796Z,16.88
2022-11-29T14:47:20.138Z,16.92
2022-11-29T14:50:38.388Z,16.94
2022-11-29T14:53:42.288Z,16.95
2022-11-29T14:56:45.503Z,16.98
2022-11-29T14:59:54.172Z,17.02
2022-11-29T15:03:10.556Z,17.04
2022-11-29T15:06:24.186Z,17.06
2022-11-29T15:09:26.987Z,17.07
2022-11-29T15:12:34.378Z,17.09
2022-11-29T15:15:58.127Z,17.11
2022-11-29T15:19:08.574Z,17.11
2022-11-29T15:22:22.806Z,17.14
2022-11-29T15:25:27.491Z,17.15
2022-11-29T15:28:30.015Z,17.16
2022-11-29T15:31:31.726Z,17.17
2022-11-29T15:34:50.166Z,17.21
2022-11-29T15:37:53.355Z,17.22
2022-11-29T15:40:55.824Z,17.22
2022-11-29T15:44:03.116Z,17.23
2022-11-29T15:47:36.902Z,17.26
2022-11-29T15:50:42.786Z,17.25
2022-11-29T15:54:12.719Z,17.27
2022-11-29T15:57:34.905Z,17.28
2022-11-29T16:00:36.716Z,17.28
2022-11-29T16:03:41.076Z,17.32
2022-11-29T16:06:44.249Z,17.31
2022-11-29T16:09:51.208Z,17.35
2022-11-29T16:12:54.953Z,17.36
2022-11-29T16:16:08.375Z,17.38
2022-11-29T16:19:37.925Z,17.39
2022-11-29T16:22:39.670Z,17.40
2022-11-29T16:25:59.721Z,17.43
2022-11-29T16:29:01.867Z,17.43
2022-11-29T16:32:28.332Z,17.47
2022-11-29T16:35:33.662Z,17.48
2022-11-29T16:38:35.296Z,17.48
2022-11-29T16:41:38.382Z,17.51
2022-11-29T16:44:39.868Z,17.52
2022-11-29T16:47:52.846Z,17.55
2022-11-29T16:51:09.413Z,17.57
2022-11-29T16:54:27.809Z,17.57
2022-11-29T16:57:30.136Z,17.58
2022-11-29T17:00:33.301Z,17.62
2022-11-29T17:03:34.762Z,17.63
2022-11-29T17:06:36.877Z,17.64
2022-11-29T17:09:38.899Z,17.66
2022-11-29T17:12:44.858Z,17.68
2022-11-29T17:15:49.378Z,17.70
2022-11-29T17:18:52.689Z,17.72
2022-11-29T17:21:54.163Z,17.73
2022-11-29T17:24:55.615Z,17.74
2022-11-29T17:27:57.837Z,17.74
2022-11-29T17:30:59.360Z,17.75
2022-11-29T17:34:01.311Z,17.75
2022-11-29T17:37:02.843Z,17.76
2022-11-29T17:40:04.981Z,17.78
2022-11-29T17:43:07.079Z,17.80
2022-11-29T17:46:15.790Z,17.81
2022-11-29T17:49:18.645Z,17.82
2022-11-29T17:52:20.183Z,17.83
2022-11-29T17:55:24.700Z,17.83
2022-11-29T17:58:29.865Z,17.82
2022-11-29T18:01:33.886Z,17.76
2022-11-29T18:04:35.946Z,17.60
2022-11-29T18:07:57.462Z,17.49
2022-11-29T18:11:32.976Z,17.53
2022-11-29T18:14:41.279Z,17.56
2022-11-29T18:17:42.822Z,17.60
2022-11-29T18:20:44.329Z,17.63
2022-11-29T18:23:45.784Z,17.67
2022-11-29T18:26:47.345Z,17.68
2022-11-29T18:29:48.960Z,17.71
2022-11-29T18:32:50.582Z,17.73
2022-11-29T18:35:52.117Z,17.76
2022-11-29T18:39:01.243Z,17.79
2022-11-29T18:42:02.769Z,17.80
2022-11-29T18:45:04.638Z,17.82
2022-11-29T18:48:06.134Z,17.85
2022-11-29T18:51:14.072Z,17.87
2022-11-29T18:54:17.804Z,17.88
2022-11-29T18:57:19.256Z,17.88
2022-11-29T19:00:21.054Z,17.90
2022-11-29T19:03:22.503Z,17.91
2022-11-29T19:06:35.427Z,17.93
2022-11-29T19:09:40.326Z,17.94
2022-11-29T19:12:41.806Z,17.96
2022-11-29T19:15:43.377Z,17.97
2022-11-29T19:18:45.571Z,17.99
2022-11-29T19:21:47.502Z,18.00
2022-11-29T19:24:49.042Z,18.01
2022-11-29T19:27:50.562Z,18.01
2022-11-29T19:30:55.350Z,18.04
2022-11-29T19:33:57.831Z,18.02
2022-11-29T19:36:59.297Z,18.02
2022-11-29T19:40:00.759Z,18.03
2022-11-29T19:43:02.237Z,18.04
2022-11-29T19:46:11.870Z,18.08
2022-11-29T19:49:13.404Z,18.08
2022-11-29T19:52:14.902Z,18.08
2022-11-29T19:55:16.462Z,18.10
2022-11-29T19:58:18.035Z,18.10
2022-11-29T20:01:27.830Z,18.12
2022-11-29T20:04:29.351Z,18.11
2022-11-29T20:07:31.197Z,18.12
2022-11-29T20:10:34.177Z,18.13
2022-11-29T20:13:37.072Z,18.13
2022-11-29T20:16:39.035Z,18.15
2022-11-29T20:19:40.601Z,18.14
2022-11-29T20:22:42.087Z,18.15
2022-11-29T20:25:48.424Z,18.15
2022-11-29T20:28:50.200Z,18.00
2022-11-29T20:31:51.866Z,17.78
2022-11-29T20:34:53.716Z,17.54
2022-11-29T20:38:18.950Z,17.34
2022-11-29T20:41:33.949Z,17.14
2022-11-29T20:44:57.552Z,16.98
2022-11-29T20:48:11.929Z,16.86
2022-11-29T20:51:15.159Z,16.77
2022-11-29T20:54:19.144Z,16.88
2022-11-29T20:57:20.849Z,17.02
2022-11-29T21:00:22.593Z,17.15
2022-11-29T21:03:26.669Z,17.26
2022-11-29T21:06:28.200Z,17.34
2022-11-29T21:09:29.670Z,17.42
2022-11-29T21:12:31.781Z,17.51
2022-11-29T21:15:33.807Z,17.55
2022-11-29T21:18:35.711Z,17.62
2022-11-29T21:21:57.427Z,17.65
2022-11-29T21:25:26.599Z,17.70
2022-11-29T21:28:34.401Z,17.72
2022-11-29T21:31:36.451Z,17.73
2022-11-29T21:34:37.976Z,17.74
2022-11-29T21:37:40.086Z,17.76
2022-11-29T21:40:41.568Z,17.77
2022-11-29T21:44:05.343Z,17.77
2022-11-29T21:47:04.798Z,17.79
2022-11-29T21:50:07.131Z,17.80
2022-11-29T21:53:08.584Z,17.80
2022-11-29T21:56:11.218Z,17.80
2022-11-29T21:59:12.683Z,17.80
2022-11-29T22:02:14.365Z,17.79
2022-11-29T22:05:16.092Z,17.79
2022-11-29T22:08:18.104Z,17.79
2022-11-29T22:11:31.328Z,17.78
2022-11-29T22:14:32.838Z,17.76
2022-11-29T22:17:34.290Z,17.75
2022-11-29T22:20:35.743Z,17.74
2022-11-29T22:23:37.195Z,17.73
2022-11-29T22:26:39.285Z,17.72
2022-11-29T22:29:40.789Z,17.72
2022-11-29T22:32:42.286Z,17.72
2022-11-29T22:35:44.252Z,17.71
2022-11-29T22:38:45.777Z,17.69
2022-11-29T22:41:53.691Z,17.69
2022-11-29T22:44:55.769Z,17.68
2022-11-29T22:47:57.913Z,17.68
2022-11-29T22:51:08.227Z,17.68
2022-11-29T22:54:11.473Z,17.66
2022-11-29T22:57:13.007Z,17.64
2022-11-29T23:00:14.751Z,17.62
2022-11-29T23:03:16.283Z,17.62
2022-11-29T23:06:20.368Z,17.61
2022-11-29T23:09:22.332Z,17.57
2022-11-29T23:12:25.598Z,17.55
2022-11-29T23:15:27.110Z,17.54
2022-11-29T23:18:29.062Z,17.52
2022-11-29T23:21:33.229Z,17.52
2022-11-29T23:24:34.722Z,17.50
2022-11-29T23:27:36.251Z,17.48
2022-11-29T23:30:37.767Z,17.47
2022-11-29T23:33:39.402Z,17.45
2022-11-29T23:36:41.461Z,17.44
2022-11-29T23:39:42.916Z,17.42
2022-11-29T23:42:47.200Z,17.41
2022-11-29T23:45:49.149Z,17.38
2022-11-29T23:48:50.877Z,17.36
2022-11-29T23:51:52.335Z,17.34
2022-11-29T23:54:53.843Z,17.32
2022-11-29T23:57:55.347Z,17.31
